createdAt,value
2016-11-28T00:00:53.578Z,99.99
2016-11-28T00:02:07.210Z,99.99
2016-11-28T00:03:20.254Z,99.99
2016-11-28T00:04:34.178Z,99.99
2016-11-28T00:05:47.213Z,99.99
2016-11-28T00:07:00.342Z,99.99
2016-11-28T00:08:12.900Z,99.99
2016-11-28T00:09:27.703Z,99.99
2016-11-28T00:10:41.636Z,99.99
2016-11-28T00:11:55.247Z,99.99
2016-11-28T00:13:08.276Z,99.99
2016-11-28T00:14:21.879Z,99.99
2016-11-28T00:15:35.001Z,99.99
2016-11-28T00:17:19.399Z,99.99
2016-11-28T00:18:33.077Z,99.99
2016-11-28T00:19:46.128Z,99.99
2016-11-28T00:20:58.672Z,99.99
2016-11-28T00:22:12.400Z,99.99
2016-11-28T00:23:26.041Z,99.99
2016-11-28T00:24:39.707Z,99.99
2016-11-28T00:25:53.249Z,99.99
2016-11-28T00:27:06.822Z,99.99
2016-11-28T00:28:20.471Z,99.99
2016-11-28T00:29:33.571Z,99.99
2016-11-28T00:30:46.645Z,99.99
2016-11-28T00:32:00.263Z,99.99
2016-11-28T00:33:13.360Z,99.99
2016-11-28T00:34:26.943Z,99.99
2016-11-28T00:35:40.301Z,99.99
2016-11-28T00:36:53.622Z,99.99
2016-11-28T00:38:06.744Z,99.99
2016-11-28T00:39:20.375Z,99.99
2016-11-28T00:40:34.249Z,99.99
2016-11-28T00:41:47.294Z,99.99
2016-11-28T00:43:01.173Z,99.99
2016-11-28T00:44:14.744Z,99.99
2016-11-28T00:45:27.528Z,99.99
2016-11-28T00:46:41.480Z,99.99
2016-11-28T00:47:55.107Z,99.99
2016-11-28T00:50:52.586Z,99.99
2016-11-28T00:52:05.393Z,99.99
2016-11-28T00:53:18.715Z,99.99
2016-11-28T00:54:31.244Z,99.99
2016-11-28T00:55:44.917Z,99.99
2016-11-28T00:56:58.045Z,99.99
2016-11-28T00:58:11.164Z,99.99
2016-11-28T00:59:24.864Z,99.99
2016-11-28T01:00:38.168Z,99.99
2016-11-28T01:01:51.815Z,99.99
2016-11-28T01:03:05.461Z,99.99
2016-11-28T01:04:18.530Z,99.99
2016-11-28T01:06:03.063Z,99.99
2016-11-28T01:07:16.638Z,99.99
2016-11-28T01:08:29.868Z,99.99
2016-11-28T01:09:42.953Z,99.99
2016-11-28T01:10:56.269Z,99.99
2016-11-28T01:12:40.974Z,99.99
2016-11-28T01:13:54.592Z,99.99
2016-11-28T01:15:07.686Z,99.99
2016-11-28T01:16:21.286Z,99.99
2016-11-28T01:17:34.866Z,99.99
2016-11-28T01:18:46.890Z,99.99
2016-11-28T01:20:00.471Z,99.99
2016-11-28T01:21:13.484Z,99.99
2016-11-28T01:22:26.562Z,99.99
2016-11-28T01:23:40.113Z,99.99
2016-11-28T01:24:53.713Z,99.99
2016-11-28T01:26:07.342Z,99.99
2016-11-28T01:27:20.960Z,99.99
2016-11-28T01:28:34.561Z,99.99
2016-11-28T01:29:47.658Z,99.99
2016-11-28T01:31:01.306Z,99.99
2016-11-28T01:32:14.878Z,99.99
2016-11-28T01:33:28.519Z,99.99
2016-11-28T01:34:42.150Z,99.99
2016-11-28T01:35:55.239Z,99.99
2016-11-28T01:37:08.864Z,99.99
2016-11-28T01:38:22.492Z,99.99
2016-11-28T01:39:35.565Z,99.99
2016-11-28T01:40:49.190Z,99.99
2016-11-28T01:42:02.301Z,99.99
2016-11-28T01:43:15.918Z,99.99
2016-11-28T01:45:00.571Z,99.99
2016-11-28T01:46:13.708Z,99.99
2016-11-28T01:47:27.318Z,99.99
2016-11-28T01:48:40.910Z,99.99
2016-11-28T01:49:54.488Z,99.99
2016-11-28T01:51:08.544Z,99.99
2016-11-28T01:52:21.622Z,99.99
2016-11-28T01:53:34.689Z,99.99
2016-11-28T01:54:48.268Z,99.99
2016-11-28T01:56:01.336Z,99.99
2016-11-28T01:57:13.830Z,99.99
2016-11-28T01:58:26.866Z,99.99
2016-11-28T01:59:39.464Z,99.99
2016-11-28T02:00:53.100Z,99.99
2016-11-28T02:02:06.172Z,99.99
2016-11-28T02:03:19.259Z,99.99
2016-11-28T02:04:32.588Z,99.99
2016-11-28T02:05:45.963Z,99.99
2016-11-28T02:06:59.496Z,99.99
2016-11-28T02:08:13.089Z,99.99
2016-11-28T02:09:26.754Z,99.99
2016-11-28T02:10:40.340Z,99.99
2016-11-28T02:11:53.362Z,99.99
2016-11-28T02:13:07.246Z,99.99
2016-11-28T02:14:20.834Z,99.99
2016-11-28T02:15:44.690Z,99.99
2016-11-28T02:16:57.765Z,99.99
2016-11-28T02:18:10.563Z,99.99
2016-11-28T02:19:24.217Z,99.99
2016-11-28T02:21:08.962Z,99.99
2016-11-28T02:22:22.654Z,99.99
2016-11-28T02:23:35.791Z,99.99
2016-11-28T02:24:48.901Z,99.99
2016-11-28T02:26:01.988Z,99.99
2016-11-28T02:27:15.611Z,99.99
2016-11-28T02:28:29.202Z,99.99
2016-11-28T02:29:42.827Z,99.99
2016-11-28T02:30:56.359Z,99.99
2016-11-28T02:32:09.395Z,99.99
2016-11-28T02:33:53.570Z,99.99
2016-11-28T02:35:07.281Z,99.99
2016-11-28T02:36:20.609Z,99.99
2016-11-28T02:37:34.375Z,99.99
2016-11-28T02:38:47.412Z,99.99
2016-11-28T02:40:01.320Z,99.99
2016-11-28T02:41:15.028Z,99.99
2016-11-28T02:42:28.667Z,99.99
2016-11-28T02:43:42.229Z,99.99
2016-11-28T02:44:55.611Z,99.99
2016-11-28T02:46:09.272Z,99.99
2016-11-28T02:47:22.388Z,99.99
2016-11-28T02:48:35.694Z,99.99
2016-11-28T02:49:48.772Z,99.99
2016-11-28T02:51:02.382Z,99.99
2016-11-28T02:52:15.955Z,99.99
2016-11-28T02:53:29.534Z,99.99
2016-11-28T02:54:43.145Z,99.99
2016-11-28T02:55:56.188Z,99.99
2016-11-28T02:57:09.790Z,99.99
2016-11-28T02:58:23.400Z,99.99
2016-11-28T02:59:36.717Z,99.99
2016-11-28T03:00:50.287Z,99.99
2016-11-28T03:02:03.407Z,99.99
2016-11-28T03:03:16.499Z,99.99
2016-11-28T03:04:30.209Z,99.99
2016-11-28T03:05:43.261Z,99.99
2016-11-28T03:06:56.899Z,99.99
2016-11-28T03:08:09.964Z,99.99
2016-11-28T03:09:23.311Z,99.99
2016-11-28T03:10:36.387Z,99.99
2016-11-28T03:11:49.514Z,99.99
2016-11-28T03:13:03.049Z,99.99
2016-11-28T03:14:16.158Z,99.99
2016-11-28T03:15:29.855Z,99.99
2016-11-28T03:16:42.950Z,99.99
2016-11-28T03:17:56.118Z,99.99
2016-11-28T03:19:09.782Z,99.99
2016-11-28T03:20:23.403Z,99.99
2016-11-28T03:21:37.263Z,99.99
2016-11-28T03:22:50.359Z,99.99
2016-11-28T03:24:04.470Z,99.99
2016-11-28T03:25:18.069Z,99.99
2016-11-28T03:26:31.692Z,99.99
2016-11-28T03:27:45.338Z,99.99
2016-11-28T03:28:58.916Z,99.99
2016-11-28T03:30:11.993Z,99.99
2016-11-28T03:31:25.353Z,99.99
2016-11-28T03:33:10.053Z,99.99
2016-11-28T03:34:22.893Z,99.99
2016-11-28T03:35:36.611Z,99.99
2016-11-28T03:36:50.274Z,99.99
2016-11-28T03:38:03.389Z,99.99
2016-11-28T03:39:16.511Z,99.99
2016-11-28T03:40:29.619Z,99.99
2016-11-28T03:41:42.697Z,99.99
2016-11-28T03:42:55.892Z,99.99
2016-11-28T03:44:40.702Z,99.99
2016-11-28T03:45:54.295Z,99.99
2016-11-28T03:47:07.433Z,99.99
2016-11-28T03:48:21.014Z,99.99
2016-11-28T03:49:34.416Z,99.99
2016-11-28T03:50:48.010Z,99.99
2016-11-28T03:52:01.663Z,99.99
2016-11-28T03:53:15.279Z,99.99
2016-11-28T03:54:28.908Z,99.99
2016-11-28T03:55:41.998Z,99.99
2016-11-28T03:56:55.382Z,99.99
2016-11-28T03:58:09.090Z,99.99
2016-11-28T03:59:22.790Z,99.99
2016-11-28T04:00:36.389Z,99.99
2016-11-28T04:01:50.040Z,99.99
2016-11-28T04:03:03.145Z,99.99
2016-11-28T04:04:15.980Z,99.99
2016-11-28T04:05:29.597Z,99.99
2016-11-28T04:06:43.140Z,99.99
2016-11-28T04:07:56.208Z,99.99
2016-11-28T04:09:09.824Z,99.99
2016-11-28T04:10:23.520Z,99.99
2016-11-28T04:11:36.312Z,99.99
2016-11-28T04:12:49.918Z,99.99
2016-11-28T04:14:02.939Z,99.99
2016-11-28T04:15:16.559Z,99.99
2016-11-28T04:16:29.636Z,99.99
2016-11-28T04:17:42.770Z,99.99
2016-11-28T04:18:56.442Z,99.99
2016-11-28T04:20:09.528Z,99.99
2016-11-28T04:21:22.647Z,99.99
2016-11-28T04:22:35.666Z,99.99
2016-11-28T04:23:48.953Z,99.99
2016-11-28T04:25:02.622Z,99.99
2016-11-28T04:26:16.204Z,99.99
2016-11-28T04:27:29.842Z,99.99
2016-11-28T04:28:43.484Z,99.99
2016-11-28T04:30:28.216Z,99.99
2016-11-28T04:31:41.393Z,99.99
2016-11-28T04:32:54.934Z,99.99
2016-11-28T04:34:08.655Z,99.99
2016-11-28T04:35:22.302Z,99.99
2016-11-28T04:36:35.430Z,99.99
2016-11-28T04:37:48.490Z,99.99
2016-11-28T04:39:02.135Z,99.99
2016-11-28T04:40:15.776Z,99.99
2016-11-28T04:41:28.317Z,99.99
2016-11-28T04:42:41.891Z,99.99
2016-11-28T04:43:55.508Z,99.99
2016-11-28T04:45:09.169Z,99.99
2016-11-28T04:46:21.688Z,99.99
2016-11-28T04:47:34.851Z,99.99
2016-11-28T04:48:48.194Z,99.99
2016-11-28T04:50:01.779Z,99.99
2016-11-28T04:51:15.425Z,99.99
2016-11-28T04:52:28.477Z,99.99
2016-11-28T04:53:42.049Z,99.99
2016-11-28T04:54:54.600Z,99.99
2016-11-28T04:56:08.108Z,99.99
2016-11-28T04:57:20.920Z,99.99
2016-11-28T04:58:34.584Z,99.99
2016-11-28T04:59:48.186Z,99.99
2016-11-28T05:01:01.808Z,99.99
2016-11-28T05:02:15.384Z,99.99
2016-11-28T05:03:28.438Z,99.99
2016-11-28T05:04:40.704Z,99.99
2016-11-28T05:05:53.747Z,99.99
2016-11-28T05:07:07.373Z,99.99
2016-11-28T05:08:20.965Z,99.99
2016-11-28T05:09:34.443Z,99.99
2016-11-28T05:10:48.183Z,99.99
2016-11-28T05:12:01.871Z,99.99
2016-11-28T05:13:15.454Z,99.99
2016-11-28T05:14:29.031Z,99.99
2016-11-28T05:15:42.575Z,99.99
2016-11-28T05:16:55.682Z,99.99
2016-11-28T05:18:09.278Z,99.99
2016-11-28T05:19:22.920Z,99.99
2016-11-28T05:20:36.527Z,99.99
2016-11-28T05:21:49.669Z,99.99
2016-11-28T05:23:03.278Z,99.99
2016-11-28T05:24:16.878Z,99.99
2016-11-28T05:25:29.722Z,99.99
2016-11-28T05:26:43.375Z,99.99
2016-11-28T05:27:56.743Z,99.99
2016-11-28T05:29:10.401Z,99.99
2016-11-28T05:30:23.542Z,99.99
2016-11-28T05:31:37.436Z,99.99
2016-11-28T05:32:50.499Z,99.99
2016-11-28T05:34:04.465Z,99.99
2016-11-28T05:35:18.074Z,99.99
2016-11-28T05:36:31.391Z,99.99
2016-11-28T05:37:44.982Z,99.99
2016-11-28T05:38:58.588Z,99.99
2016-11-28T05:40:12.266Z,99.99
2016-11-28T05:41:25.878Z,99.99
2016-11-28T05:42:39.523Z,99.99
2016-11-28T05:43:53.147Z,99.99
2016-11-28T05:45:06.208Z,99.99
2016-11-28T05:46:19.243Z,99.99
2016-11-28T05:47:32.872Z,99.99
2016-11-28T05:48:46.252Z,99.99
2016-11-28T05:49:59.044Z,99.99
2016-11-28T05:51:12.723Z,99.99
2016-11-28T05:52:25.818Z,99.99
2016-11-28T05:53:39.489Z,99.99
2016-11-28T05:54:52.357Z,99.99
2016-11-28T05:56:05.910Z,99.99
2016-11-28T05:57:19.025Z,99.99
2016-11-28T05:58:32.635Z,99.99
2016-11-28T05:59:46.241Z,99.99
2016-11-28T06:00:59.840Z,99.99
2016-11-28T06:02:12.461Z,99.99
2016-11-28T06:03:25.558Z,99.99
2016-11-28T06:04:38.687Z,99.99
2016-11-28T06:06:23.381Z,99.99
2016-11-28T06:07:37.037Z,99.99
2016-11-28T06:08:50.130Z,99.99
2016-11-28T06:10:03.746Z,99.99
2016-11-28T06:11:17.339Z,99.99
2016-11-28T06:12:31.305Z,99.99
2016-11-28T06:13:44.979Z,99.99
2016-11-28T06:14:58.059Z,99.99
2016-11-28T06:16:11.776Z,99.99
2016-11-28T06:17:25.390Z,99.99
2016-11-28T06:20:22.453Z,99.99
2016-11-28T06:21:36.106Z,99.99
2016-11-28T06:22:48.953Z,99.99
2016-11-28T06:24:02.024Z,99.99
2016-11-28T06:25:15.647Z,99.99
2016-11-28T06:26:28.394Z,99.99
2016-11-28T06:27:42.087Z,99.99
2016-11-28T06:28:55.623Z,99.99
2016-11-28T06:30:09.267Z,99.99
2016-11-28T06:31:22.633Z,99.99
2016-11-28T06:32:35.166Z,99.99
2016-11-28T06:33:48.199Z,99.99
2016-11-28T06:35:01.822Z,99.99
2016-11-28T06:36:14.895Z,99.99
2016-11-28T06:37:28.515Z,99.99
2016-11-28T06:38:42.195Z,99.99
2016-11-28T06:39:55.843Z,99.99
2016-11-28T06:41:09.176Z,99.99
2016-11-28T06:42:22.799Z,99.99
2016-11-28T06:43:36.425Z,99.99
2016-11-28T06:44:50.116Z,99.99
2016-11-28T06:46:03.743Z,99.99
2016-11-28T06:47:17.083Z,99.99
2016-11-28T06:48:30.683Z,99.99
2016-11-28T06:49:43.699Z,99.99
2016-11-28T06:50:57.318Z,99.99
2016-11-28T06:52:10.875Z,99.99
2016-11-28T06:53:24.537Z,99.99
2016-11-28T06:54:38.106Z,99.99
2016-11-28T06:55:51.687Z,99.99
2016-11-28T06:57:04.813Z,99.99
2016-11-28T06:58:18.436Z,99.99
2016-11-28T06:59:31.533Z,99.99
2016-11-28T07:00:45.117Z,99.99
2016-11-28T07:01:58.773Z,99.99
2016-11-28T07:03:12.363Z,99.99
2016-11-28T07:04:26.052Z,99.99
2016-11-28T07:05:39.692Z,99.99
2016-11-28T07:06:52.817Z,99.99
2016-11-28T07:08:06.335Z,99.99
2016-11-28T07:09:19.948Z,99.99
2016-11-28T07:10:33.571Z,99.99
2016-11-28T07:11:47.212Z,99.99
2016-11-28T07:13:00.306Z,99.99
2016-11-28T07:14:13.931Z,99.99
2016-11-28T07:15:27.454Z,99.99
2016-11-28T07:16:40.541Z,99.99
2016-11-28T07:17:54.165Z,99.99
2016-11-28T07:19:07.571Z,99.99
2016-11-28T07:20:20.620Z,99.99
2016-11-28T07:21:34.532Z,99.99
2016-11-28T07:22:47.860Z,99.99
2016-11-28T07:24:00.916Z,99.99
2016-11-28T07:25:45.961Z,99.99
2016-11-28T07:26:59.506Z,99.99
2016-11-28T07:28:13.090Z,99.99
2016-11-28T07:29:26.693Z,99.99
2016-11-28T07:30:40.306Z,99.99
2016-11-28T07:32:24.956Z,99.99
2016-11-28T07:33:38.062Z,99.99
2016-11-28T07:34:51.610Z,99.99
2016-11-28T07:36:05.230Z,99.99
2016-11-28T07:37:18.879Z,99.99
2016-11-28T07:38:32.616Z,99.99
2016-11-28T07:39:45.122Z,99.99
2016-11-28T07:40:58.781Z,99.99
2016-11-28T07:42:12.314Z,99.99
2016-11-28T07:43:25.952Z,99.99
2016-11-28T07:44:39.603Z,99.99
2016-11-28T07:45:52.081Z,99.99
2016-11-28T07:47:05.129Z,99.99
2016-11-28T07:48:18.729Z,99.99
2016-11-28T07:49:32.309Z,99.99
2016-11-28T07:50:45.849Z,99.99
2016-11-28T07:51:59.430Z,99.99
2016-11-28T07:53:13.028Z,99.99
2016-11-28T07:54:26.717Z,99.99
2016-11-28T07:55:40.287Z,99.99
2016-11-28T07:56:53.877Z,99.99
2016-11-28T07:58:07.565Z,99.99
2016-11-28T07:59:21.257Z,99.99
2016-11-28T08:00:34.864Z,99.99
2016-11-28T08:01:46.888Z,99.99
2016-11-28T08:03:00.499Z,99.99
2016-11-28T08:04:13.281Z,99.99
2016-11-28T08:05:26.905Z,99.99
2016-11-28T08:06:40.543Z,99.99
2016-11-28T08:07:54.199Z,99.99
2016-11-28T08:09:07.799Z,99.99
2016-11-28T08:10:21.419Z,99.99
2016-11-28T08:11:34.743Z,99.99
2016-11-28T08:12:48.423Z,99.99
2016-11-28T08:14:01.984Z,99.99
2016-11-28T08:15:15.026Z,99.99
2016-11-28T08:16:27.067Z,99.99
2016-11-28T08:17:40.661Z,99.99
2016-11-28T08:18:54.299Z,99.99
2016-11-28T08:20:07.939Z,99.99
2016-11-28T08:21:21.578Z,99.99
2016-11-28T08:22:35.129Z,99.99
2016-11-28T08:23:48.720Z,99.99
2016-11-28T08:25:02.395Z,99.99
2016-11-28T08:26:15.997Z,99.99
2016-11-28T08:27:29.668Z,99.99
2016-11-28T08:28:42.674Z,99.99
2016-11-28T08:29:55.178Z,99.99
2016-11-28T08:31:08.028Z,99.99
2016-11-28T08:32:21.359Z,99.99
2016-11-28T08:33:35.066Z,99.99
2016-11-28T08:34:48.430Z,99.99
2016-11-28T08:36:01.796Z,99.99
2016-11-28T08:37:14.883Z,99.99
2016-11-28T08:38:27.664Z,99.99
2016-11-28T08:39:40.485Z,99.99
2016-11-28T08:40:53.517Z,99.99
2016-11-28T08:42:06.017Z,99.99
2016-11-28T08:43:19.563Z,99.99
2016-11-28T08:44:33.175Z,99.99
2016-11-28T08:45:46.321Z,99.99
2016-11-28T08:46:59.984Z,99.99
2016-11-28T08:48:13.345Z,99.99
2016-11-28T08:49:26.915Z,99.99
2016-11-28T08:50:40.581Z,99.99
2016-11-28T08:51:53.660Z,99.99
2016-11-28T08:53:07.607Z,99.99
2016-11-28T08:54:21.247Z,99.99
2016-11-28T08:55:34.767Z,99.99
2016-11-28T08:56:48.403Z,99.99
2016-11-28T08:58:01.483Z,99.99
2016-11-28T08:59:15.111Z,99.99
2016-11-28T09:00:28.763Z,99.99
2016-11-28T09:01:42.314Z,99.99
2016-11-28T09:02:55.669Z,99.99
2016-11-28T09:04:09.218Z,99.99
2016-11-28T09:05:22.368Z,99.99
2016-11-28T09:06:35.953Z,99.99
2016-11-28T09:07:49.324Z,99.99
2016-11-28T09:09:02.926Z,99.99
2016-11-28T09:10:15.977Z,99.99
2016-11-28T09:11:29.032Z,99.99
2016-11-28T09:12:42.107Z,99.99
2016-11-28T09:13:55.668Z,99.99
2016-11-28T09:15:08.283Z,99.99
2016-11-28T09:16:21.342Z,99.99
2016-11-28T09:17:34.623Z,99.99
2016-11-28T09:18:48.267Z,99.99
2016-11-28T09:20:01.915Z,99.99
2016-11-28T09:21:15.523Z,99.99
2016-11-28T09:22:28.562Z,99.99
2016-11-28T09:23:42.163Z,99.99
2016-11-28T09:24:55.903Z,99.99
2016-11-28T09:26:09.527Z,99.99
2016-11-28T09:27:22.598Z,99.99
2016-11-28T09:28:36.218Z,99.99
2016-11-28T09:29:49.808Z,99.99
2016-11-28T09:31:03.493Z,99.99
2016-11-28T09:32:17.063Z,99.99
2016-11-28T09:33:30.637Z,99.99
2016-11-28T09:34:43.679Z,99.99
2016-11-28T09:35:57.246Z,99.99
2016-11-28T09:37:10.774Z,99.99
2016-11-28T09:38:23.606Z,99.99
2016-11-28T09:39:37.232Z,99.99
2016-11-28T09:40:50.329Z,99.99
2016-11-28T09:42:03.972Z,99.99
2016-11-28T09:43:16.578Z,99.99
2016-11-28T09:44:30.223Z,99.99
2016-11-28T09:45:43.867Z,99.99
2016-11-28T09:47:28.556Z,99.99
2016-11-28T09:48:42.137Z,99.99
2016-11-28T09:49:55.754Z,99.99
2016-11-28T09:51:09.358Z,99.99
2016-11-28T09:52:21.862Z,99.99
2016-11-28T09:53:35.221Z,99.99
2016-11-28T09:54:48.806Z,99.99
2016-11-28T09:56:01.872Z,99.99
2016-11-28T09:57:15.470Z,99.99
2016-11-28T09:58:29.105Z,99.99
2016-11-28T09:59:42.708Z,99.99
2016-11-28T10:00:55.811Z,99.99
2016-11-28T10:02:09.431Z,99.99
2016-11-28T10:03:23.001Z,99.99
2016-11-28T10:04:36.696Z,99.99
2016-11-28T10:05:49.823Z,99.99
2016-11-28T10:07:03.492Z,99.99
2016-11-28T10:08:16.487Z,99.99
2016-11-28T10:09:30.039Z,99.99
2016-11-28T10:10:43.657Z,99.99
2016-11-28T10:11:57.050Z,99.99
2016-11-28T10:13:10.081Z,99.99
2016-11-28T10:14:23.769Z,99.99
2016-11-28T10:15:37.760Z,99.99
2016-11-28T10:16:50.868Z,99.99
2016-11-28T10:18:04.637Z,99.99
2016-11-28T10:19:48.810Z,99.99
2016-11-28T10:21:01.886Z,99.99
2016-11-28T10:22:15.478Z,99.99
2016-11-28T10:23:28.217Z,99.99
2016-11-28T10:24:42.042Z,99.99
2016-11-28T10:25:55.656Z,99.99
2016-11-28T10:27:08.348Z,99.99
2016-11-28T10:28:20.943Z,99.99
2016-11-28T10:29:34.655Z,99.99
2016-11-28T10:30:48.282Z,99.99
2016-11-28T10:32:01.922Z,99.99
2016-11-28T10:33:15.521Z,99.99
2016-11-28T10:34:29.153Z,99.99
2016-11-28T10:35:42.721Z,99.99
2016-11-28T10:36:56.333Z,99.99
2016-11-28T10:38:09.953Z,99.99
2016-11-28T10:39:22.752Z,99.99
2016-11-28T10:40:36.372Z,99.99
2016-11-28T10:41:49.128Z,99.99
2016-11-28T10:43:02.758Z,99.99
2016-11-28T10:44:16.374Z,99.99
2016-11-28T10:45:30.006Z,99.99
2016-11-28T10:46:43.381Z,99.99
2016-11-28T10:47:56.943Z,99.99
2016-11-28T10:49:10.333Z,99.99
2016-11-28T10:50:23.708Z,99.99
2016-11-28T10:51:37.752Z,99.99
2016-11-28T10:52:51.300Z,99.99
2016-11-28T10:54:04.927Z,99.99
2016-11-28T10:55:18.462Z,99.99
2016-11-28T10:56:32.049Z,99.99
2016-11-28T10:57:45.641Z,99.99
2016-11-28T10:58:58.693Z,99.99
2016-11-28T11:00:11.748Z,99.99
2016-11-28T11:01:25.360Z,99.99
2016-11-28T11:02:38.980Z,99.99
2016-11-28T11:04:11.151Z,99.99
2016-11-28T11:05:24.885Z,99.99
2016-11-28T11:06:38.942Z,99.99
2016-11-28T11:07:51.504Z,99.99
2016-11-28T11:09:04.613Z,99.99
2016-11-28T11:10:18.183Z,99.99
2016-11-28T11:11:31.517Z,99.99
2016-11-28T11:12:45.160Z,99.99
2016-11-28T11:13:58.463Z,99.99
2016-11-28T11:15:12.053Z,99.99
2016-11-28T11:16:25.656Z,99.99
2016-11-28T11:17:39.313Z,99.99
2016-11-28T11:18:52.944Z,99.99
2016-11-28T11:20:06.045Z,99.99
2016-11-28T11:21:18.901Z,99.99
2016-11-28T11:22:32.512Z,99.99
2016-11-28T11:23:46.151Z,99.99
2016-11-28T11:24:59.732Z,99.99
2016-11-28T11:26:13.078Z,99.99
2016-11-28T11:27:26.473Z,99.99
2016-11-28T11:28:40.079Z,99.99
2016-11-28T11:29:53.130Z,99.99
2016-11-28T11:31:06.416Z,99.99
2016-11-28T11:32:19.472Z,99.99
2016-11-28T11:33:32.851Z,99.99
2016-11-28T11:34:46.507Z,99.99
2016-11-28T11:35:59.619Z,99.99
2016-11-28T11:37:13.153Z,99.99
2016-11-28T11:38:26.807Z,99.99
2016-11-28T11:39:40.443Z,99.99
2016-11-28T11:40:53.783Z,99.99
2016-11-28T11:42:38.256Z,99.99
2016-11-28T11:43:50.773Z,99.99
2016-11-28T11:45:03.895Z,99.99
2016-11-28T11:46:16.955Z,99.99
2016-11-28T11:47:29.452Z,99.99
2016-11-28T11:48:42.544Z,99.99
2016-11-28T11:49:56.121Z,99.99
2016-11-28T11:51:09.181Z,99.99
2016-11-28T11:52:22.209Z,99.99
2016-11-28T11:53:34.764Z,99.99
2016-11-28T11:54:47.795Z,99.99
2016-11-28T11:56:01.532Z,99.99
2016-11-28T11:57:15.133Z,99.99
2016-11-28T11:58:28.179Z,99.99
2016-11-28T11:59:42.080Z,99.99
2016-11-28T12:00:54.591Z,99.99
2016-11-28T12:02:07.825Z,99.99
2016-11-28T12:03:21.495Z,99.99
2016-11-28T12:04:34.715Z,99.99
2016-11-28T12:05:48.292Z,99.99
2016-11-28T12:07:01.891Z,99.99
2016-11-28T12:08:46.566Z,99.99
2016-11-28T12:10:00.178Z,99.99
2016-11-28T12:11:13.530Z,99.99
2016-11-28T12:12:27.181Z,99.99
2016-11-28T12:13:40.783Z,99.99
2016-11-28T12:14:54.457Z,99.99
2016-11-28T12:16:07.001Z,99.99
2016-11-28T12:17:20.546Z,99.99
2016-11-28T12:18:33.922Z,99.99
2016-11-28T12:19:47.572Z,99.85
2016-11-28T12:21:01.498Z,99.99
2016-11-28T12:22:14.702Z,99.99
2016-11-28T12:23:27.791Z,99.99
2016-11-28T12:24:41.393Z,99.99
2016-11-28T12:25:54.982Z,99.99
2016-11-28T12:27:07.922Z,99.85
2016-11-28T12:28:21.524Z,99.32
2016-11-28T12:29:34.719Z,99.32
2016-11-28T12:30:47.760Z,99.41
2016-11-28T12:32:00.917Z,98.63
2016-11-28T12:33:14.569Z,98.83
2016-11-28T12:34:28.321Z,98.25
2016-11-28T12:35:42.178Z,98.54
2016-11-28T12:36:55.264Z,97.47
2016-11-28T12:38:09.033Z,97.47
2016-11-28T12:39:22.638Z,98.05
2016-11-28T12:40:36.214Z,98.25
2016-11-28T12:41:49.761Z,98.54
2016-11-28T12:43:03.431Z,98.44
2016-11-28T12:44:16.476Z,97.76
2016-11-28T12:45:30.105Z,97.52
2016-11-28T12:46:43.773Z,97.81
2016-11-28T12:47:56.901Z,98.49
2016-11-28T12:49:10.251Z,99.75
2016-11-28T12:50:23.907Z,99.6
2016-11-28T12:52:07.044Z,98.63
2016-11-28T12:53:20.693Z,98.25
2016-11-28T12:54:33.847Z,97.47
2016-11-28T12:55:47.195Z,96.98
2016-11-28T12:57:00.730Z,94.9
2016-11-28T12:58:13.806Z,93.15
2016-11-28T12:59:27.428Z,93.73
2016-11-28T13:00:40.985Z,92.38
2016-11-28T13:01:54.552Z,91.06
2016-11-28T13:03:07.613Z,90.67
2016-11-28T13:04:20.702Z,90.28
2016-11-28T13:05:34.698Z,90.38
2016-11-28T13:06:48.244Z,90.48
2016-11-28T13:08:01.833Z,88.83
2016-11-28T13:09:15.393Z,89.03
2016-11-28T13:10:27.904Z,88.44
2016-11-28T13:11:41.500Z,88.73
2016-11-28T13:12:55.059Z,89.31
2016-11-28T13:14:09.098Z,90.09
2016-11-28T13:15:22.470Z,89.12
2016-11-28T13:16:36.099Z,89.31
2016-11-28T13:17:49.179Z,88.64
2016-11-28T13:19:02.796Z,88.78
2016-11-28T13:20:16.446Z,89.8
2016-11-28T13:21:30.001Z,89.8
2016-11-28T13:22:42.558Z,88.68
2016-11-28T13:23:56.138Z,89.17
2016-11-28T13:25:09.421Z,89.75
2016-11-28T13:26:23.035Z,90.33
2016-11-28T13:27:35.907Z,90.48
2016-11-28T13:28:49.582Z,91.3
2016-11-28T13:30:02.642Z,90.14
2016-11-28T13:31:15.962Z,88.97
2016-11-28T13:32:29.571Z,88.19
2016-11-28T13:33:42.662Z,89.45
2016-11-28T13:34:56.306Z,89.84
2016-11-28T13:36:09.362Z,90.14
2016-11-28T13:37:23.008Z,89.65
2016-11-28T13:38:36.573Z,88.97
2016-11-28T13:39:50.384Z,89.17
2016-11-28T13:41:02.660Z,88.68
2016-11-28T13:42:16.557Z,88.82
2016-11-28T13:43:29.362Z,88.68
2016-11-28T13:44:42.442Z,88.43
2016-11-28T13:45:55.596Z,88.04
2016-11-28T13:47:09.036Z,87.36
2016-11-28T13:48:22.594Z,87.95
2016-11-28T13:49:35.923Z,89.11
2016-11-28T13:50:49.523Z,86
2016-11-28T13:52:05.939Z,86.68
2016-11-28T13:53:19.512Z,87.36
2016-11-28T13:54:33.164Z,87.07
2016-11-28T13:55:46.182Z,86.14
2016-11-28T13:56:59.233Z,85.27
2016-11-28T13:58:12.849Z,85.27
2016-11-28T13:59:26.486Z,84.05
2016-11-28T14:00:40.066Z,83.56
2016-11-28T14:01:53.210Z,82.78
2016-11-28T14:03:06.919Z,83.11
2016-11-28T14:04:19.475Z,82.14
2016-11-28T14:05:33.055Z,81.75
2016-11-28T14:06:46.688Z,82.28
2016-11-28T14:07:59.796Z,80.46
2016-11-28T14:09:13.431Z,80.27
2016-11-28T14:10:26.525Z,79.39
2016-11-28T14:11:39.060Z,79.3
2016-11-28T14:12:52.780Z,78.45
2016-11-28T14:14:06.411Z,77.68
2016-11-28T14:15:50.570Z,77.78
2016-11-28T14:17:03.704Z,78.26
2016-11-28T14:18:17.481Z,78.16
2016-11-28T14:19:30.717Z,77.39
2016-11-28T14:20:44.521Z,77.58
2016-11-28T14:21:58.194Z,77.19
2016-11-28T14:23:12.177Z,77.03
2016-11-28T14:24:25.757Z,77.03
2016-11-28T14:25:39.162Z,74.63
2016-11-28T14:26:52.910Z,75.27
2016-11-28T14:28:06.376Z,75.27
2016-11-28T14:29:22.233Z,76.06
2016-11-28T14:30:35.957Z,76.25
2016-11-28T14:31:49.870Z,76.84
2016-11-28T14:33:02.761Z,76.25
2016-11-28T14:34:16.568Z,75.31
2016-11-28T14:35:30.356Z,75.12
2016-11-28T14:36:43.386Z,74.96
2016-11-28T14:37:57.095Z,74.96
2016-11-28T14:39:10.127Z,75.25
2016-11-28T14:40:28.398Z,75.39
2016-11-28T14:41:44.038Z,74.9
2016-11-28T14:42:57.507Z,73.93
2016-11-28T14:44:11.122Z,74.32
2016-11-28T14:45:24.782Z,72.91
2016-11-28T14:46:38.610Z,72.56
2016-11-28T14:47:52.333Z,72.1
2016-11-28T14:49:05.939Z,72.08
2016-11-28T14:50:19.528Z,71.33
2016-11-28T14:51:32.644Z,69.89
2016-11-28T14:52:45.768Z,69.54
2016-11-28T14:53:59.070Z,69.11
2016-11-28T14:55:12.755Z,68.33
2016-11-28T14:56:25.941Z,67.77
2016-11-28T14:57:39.620Z,67.8
2016-11-28T14:58:53.315Z,67.12
2016-11-28T15:00:06.349Z,67.02
2016-11-28T15:01:20.117Z,67.71
2016-11-28T15:02:33.728Z,67.71
2016-11-28T15:03:47.612Z,67.51
2016-11-28T15:05:00.819Z,68.49
2016-11-28T15:06:14.027Z,68
2016-11-28T15:07:27.390Z,68.55
2016-11-28T15:08:40.745Z,68.36
2016-11-28T15:09:54.241Z,69.34
2016-11-28T15:11:07.886Z,68.46
2016-11-28T15:12:20.866Z,68.85
2016-11-28T15:13:34.763Z,68.69
2016-11-28T15:14:48.412Z,67.15
2016-11-28T15:16:01.953Z,67.35
2016-11-28T15:17:15.551Z,68.62
2016-11-28T15:18:28.549Z,68.52
2016-11-28T15:19:41.605Z,68.16
2016-11-28T15:20:55.203Z,69.24
2016-11-28T15:22:08.575Z,68.26
2016-11-28T15:23:21.627Z,68
2016-11-28T15:24:34.829Z,68.33
2016-11-28T15:25:47.911Z,68.46
2016-11-28T15:27:01.645Z,68.26
2016-11-28T15:28:15.243Z,67.54
2016-11-28T15:29:28.790Z,66.27
2016-11-28T15:30:42.376Z,64.67
2016-11-28T15:31:56.003Z,65.03
2016-11-28T15:33:09.537Z,64.43
2016-11-28T15:34:23.147Z,64.83
2016-11-28T15:35:36.695Z,64.24
2016-11-28T15:36:50.204Z,64.43
2016-11-28T15:38:03.514Z,64.96
2016-11-28T15:39:17.157Z,65.42
2016-11-28T15:40:30.813Z,65.78
2016-11-28T15:41:44.438Z,67.84
2016-11-28T15:42:57.507Z,66.89
2016-11-28T15:44:10.553Z,66.4
2016-11-28T15:45:23.658Z,65.45
2016-11-28T15:46:36.759Z,66.24
2016-11-28T15:47:50.321Z,66.79
2016-11-28T15:49:03.391Z,65.94
2016-11-28T15:50:16.367Z,64.51
2016-11-28T15:51:29.110Z,63.88
2016-11-28T15:52:42.682Z,61.76
2016-11-28T15:53:55.822Z,61.22
2016-11-28T15:55:09.401Z,58.57
2016-11-28T15:56:22.921Z,58.5
2016-11-28T15:57:35.981Z,57.35
2016-11-28T15:58:49.081Z,57.48
2016-11-28T16:00:02.669Z,57.87